Terminal Aerodrome Forecast
Issued by NWS

Home | Current Version | Previous Version | Text Only | Print | Product List | Glossary On
Versions: 1 2 3 4 5 6 7 8 9 10 11 12 13 14 15 16
064
FTUS43 KEAX 211738
TAFSTJ
TAF
KSTJ 211738Z 2118/2218 15008KT 6SM BR SCT020 BKN030
      TEMPO 2118/2122 SCT030
     FM220000 15007KT 6SM -SHRA VCTS OVC015CB
     FM220700 17009KT P6SM SCT015
     FM221200 20009KT 3SM -DZ VCSH BKN010=

USA.gov is the U.S. government's official web portal to all federal, state and local government web resources and services.